Terminal Aerodrome Forecast
Issued by NWS

Current Version | Previous Version | Text Only | Print | Product List | Glossary On
Versions: 1 2 3 4 5 6 7 8 9 10 11 12 13 14 15 16 17 18 19 20 21 22 23 24 25 26 27 28 29 30 31 32 33 34 35 36 37 38 39 40 41 42 43 44 45 46 47 48 49 50
000
FTAK31 PANC 240043 AAA
TAFASD
TAF AMD
PASD 240043Z 2401/2424 30009G15KT P6SM -RA FEW019 BKN035
      TEMPO 2402/2406 SCT015 BKN025
     FM240600 30011G16KT 5SM -RA BR OVC015
     FM241600 32015KT 6SM -RA BR OVC015
      AMD LTD TO CLD VIS AND WIND=

USA.gov is the U.S. government's official web portal to all federal, state and local government web resources and services.